sensor_id;sensor_type;location;lat;lon;timestamp;pressure;altitude;pressure_sealevel;temperature;humidity
65359;BME280;52491;45.900;6.346;2023-02-01T00:00:54;94691.06;;;22.85;22.89
65359;BME280;52491;45.900;6.346;2023-02-01T00:03:20;94684.94;;;22.84;22.79
65359;BME280;52491;45.900;6.346;2023-02-01T00:05:55;94681.81;;;22.87;22.86
65359;BME280;52491;45.900;6.346;2023-02-01T00:08:21;94676.19;;;22.84;22.84
65359;BME280;52491;45.900;6.346;2023-02-01T00:10:47;94678.59;;;22.85;22.80
65359;BME280;52491;45.900;6.346;2023-02-01T00:13:12;94680.69;;;22.83;22.81
65359;BME280;52491;45.900;6.346;2023-02-01T00:15:38;94686.00;;;22.83;22.87
65359;BME280;52491;45.900;6.346;2023-02-01T00:18:04;94683.56;;;22.82;22.81
65359;BME280;52491;45.900;6.346;2023-02-01T00:20:29;94678.25;;;22.82;22.81
65359;BME280;52491;45.900;6.346;2023-02-01T00:22:55;94679.31;;;22.81;22.77
65359;BME280;52491;45.900;6.346;2023-02-01T00:25:20;94674.19;;;22.79;22.70
65359;BME280;52491;45.900;6.346;2023-02-01T00:27:49;94675.84;;;22.80;22.69
65359;BME280;52491;45.900;6.346;2023-02-01T00:30:17;94685.63;;;22.79;22.65
65359;BME280;52491;45.900;6.346;2023-02-01T00:32:43;94683.22;;;22.78;22.64
65359;BME280;52491;45.900;6.346;2023-02-01T00:35:08;94683.22;;;22.78;22.65
65359;BME280;52491;45.900;6.346;2023-02-01T00:37:34;94693.28;;;22.76;22.74
65359;BME280;52491;45.900;6.346;2023-02-01T00:39:59;94697.56;;;22.77;22.61
65359;BME280;52491;45.900;6.346;2023-02-01T00:42:25;94698.84;;;22.74;22.76
65359;BME280;52491;45.900;6.346;2023-02-01T00:44:51;94697.47;;;22.72;22.62
65359;BME280;52491;45.900;6.346;2023-02-01T00:47:17;94695.59;;;22.72;22.65
65359;BME280;52491;45.900;6.346;2023-02-01T00:49:42;94693.16;;;22.71;22.73
65359;BME280;52491;45.900;6.346;2023-02-01T00:52:08;94699.31;;;22.71;22.39
65359;BME280;52491;45.900;6.346;2023-02-01T00:54:33;94700.34;;;22.70;22.58
65359;BME280;52491;45.900;6.346;2023-02-01T00:57:01;94704.03;;;22.69;22.49
65359;BME280;52491;45.900;6.346;2023-02-01T00:59:26;94704.03;;;22.69;22.49
65359;BME280;52491;45.900;6.346;2023-02-01T01:01:52;94706.69;;;22.69;22.56
65359;BME280;52491;45.900;6.346;2023-02-01T01:04:17;94716.28;;;22.70;22.40
65359;BME280;52491;45.900;6.346;2023-02-01T01:06:43;94708.56;;;22.69;22.49
65359;BME280;52491;45.900;6.346;2023-02-01T01:09:09;94716.53;;;22.69;22.48
65359;BME280;52491;45.900;6.346;2023-02-01T01:11:37;94715.47;;;22.70;22.57
65359;BME280;52491;45.900;6.346;2023-02-01T01:14:04;94714.09;;;22.67;22.29
65359;BME280;52491;45.900;6.346;2023-02-01T01:16:32;94721.84;;;22.69;22.36
65359;BME280;52491;45.900;6.346;2023-02-01T01:18:58;94718.94;;;22.70;22.38
65359;BME280;52491;45.900;6.346;2023-02-01T01:21:24;94727.16;;;22.69;22.27
65359;BME280;52491;45.900;6.346;2023-02-01T01:23:50;94733.50;;;22.68;22.38
65359;BME280;52491;45.900;6.346;2023-02-01T01:26:19;94726.31;;;22.68;22.40
65359;BME280;52491;45.900;6.346;2023-02-01T01:28:45;94732.69;;;22.67;22.34
65359;BME280;52491;45.900;6.346;2023-02-01T01:31:13;94730.84;;;22.68;22.39
65359;BME280;52491;45.900;6.346;2023-02-01T01:33:39;94729.22;;;22.67;22.29
65359;BME280;52491;45.900;6.346;2023-02-01T01:36:06;94737.22;;;22.67;22.29
65359;BME280;52491;45.900;6.346;2023-02-01T01:38:32;94731.09;;;22.66;22.21
65359;BME280;52491;45.900;6.346;2023-02-01T01:40:58;94732.91;;;22.66;22.24
65359;BME280;52491;45.900;6.346;2023-02-01T01:43:24;94723.91;;;22.67;22.20
65359;BME280;52491;45.900;6.346;2023-02-01T01:45:49;94726.56;;;22.67;22.21
65359;BME280;52491;45.900;6.346;2023-02-01T01:50:49;94716.75;;;22.67;22.21
65359;BME280;52491;45.900;6.346;2023-02-01T01:53:24;94710.03;;;22.65;22.11
65359;BME280;52491;45.900;6.346;2023-02-01T01:55:52;94712.94;;;22.63;22.07
65359;BME280;52491;45.900;6.346;2023-02-01T01:58:25;94708.19;;;22.65;21.81
65359;BME280;52491;45.900;6.346;2023-02-01T02:00:53;94707.97;;;22.67;21.96
65359;BME280;52491;45.900;6.346;2023-02-01T02:05:55;94708.19;;;22.65;22.05
65359;BME280;52491;45.900;6.346;2023-02-01T02:08:24;94703.66;;;22.66;21.95
65359;BME280;52491;45.900;6.346;2023-02-01T02:10:50;94702.06;;;22.65;21.89
65359;BME280;52491;45.900;6.346;2023-02-01T02:13:29;94706.91;;;22.56;22.00
65359;BME280;52491;45.900;6.346;2023-02-01T02:18:57;94705.78;;;22.64;21.96
65359;BME280;52491;45.900;6.346;2023-02-01T02:24:16;94701.47;;;22.63;21.76
65359;BME280;52491;45.900;6.346;2023-02-01T02:27:02;94692.47;;;22.64;21.78
65359;BME280;52491;45.900;6.346;2023-02-01T02:29:47;94691.44;;;22.65;21.83
65359;BME280;52491;45.900;6.346;2023-02-01T02:38:18;94699.88;;;22.62;21.77
65359;BME280;52491;45.900;6.346;2023-02-01T02:43:47;94698.72;;;22.58;21.80
65359;BME280;52491;45.900;6.346;2023-02-01T02:46:37;94699.75;;;22.56;21.86
65359;BME280;52491;45.900;6.346;2023-02-01T02:52:15;94710.16;;;22.58;21.72
65359;BME280;52491;45.900;6.346;2023-02-01T02:55:03;94701.81;;;22.54;21.79
65359;BME280;52491;45.900;6.346;2023-02-01T02:57:37;94703.22;;;22.57;21.62
65359;BME280;52491;45.900;6.346;2023-02-01T03:00:27;94706.13;;;22.55;21.69
65359;BME280;52491;45.900;6.346;2023-02-01T03:03:12;94706.34;;;22.54;21.83
65359;BME280;52491;45.900;6.346;2023-02-01T03:05:57;94702.66;;;22.55;21.74
65359;BME280;52491;45.900;6.346;2023-02-01T03:08:24;94700.56;;;22.57;21.85
65359;BME280;52491;45.900;6.346;2023-02-01T03:13:51;94698.72;;;22.58;21.67
65359;BME280;52491;45.900;6.346;2023-02-01T03:24:53;94693.63;;;22.56;21.61
65359;BME280;52491;45.900;6.346;2023-02-01T03:30:09;94700.00;;;22.55;21.58
65359;BME280;52491;45.900;6.346;2023-02-01T03:32:37;94695.50;;;22.55;21.53
65359;BME280;52491;45.900;6.346;2023-02-01T03:35:31;94702.88;;;22.53;21.56
65359;BME280;52491;45.900;6.346;2023-02-01T03:40:37;94708.44;;;22.52;21.39
65359;BME280;52491;45.900;6.346;2023-02-01T03:43:06;94712.44;;;22.54;21.55
65359;BME280;52491;45.900;6.346;2023-02-01T03:45:39;94712.81;;;22.58;21.34
65359;BME280;52491;45.900;6.346;2023-02-01T03:48:08;94711.78;;;22.59;21.39
65359;BME280;52491;45.900;6.346;2023-02-01T03:50:37;94710.16;;;22.58;21.37
65359;BME280;52491;45.900;6.346;2023-02-01T03:53:10;94708.31;;;22.59;21.33
65359;BME280;52491;45.900;6.346;2023-02-01T03:55:38;94708.53;;;22.57;21.42
65359;BME280;52491;45.900;6.346;2023-02-01T03:58:14;94704.59;;;22.60;21.37
65359;BME280;52491;45.900;6.346;2023-02-01T04:00:42;94706.91;;;22.56;21.45
65359;BME280;52491;45.900;6.346;2023-02-01T04:03:09;94703.22;;;22.57;21.40
65359;BME280;52491;45.900;6.346;2023-02-01T04:05:35;94710.97;;;22.59;21.27
65359;BME280;52491;45.900;6.346;2023-02-01T04:08:01;94703.78;;;22.59;21.41
65359;BME280;52491;45.900;6.346;2023-02-01T04:10:26;94701.13;;;22.59;21.22
65359;BME280;52491;45.900;6.346;2023-02-01T04:12:52;94703.59;;;22.61;21.35
65359;BME280;52491;45.900;6.346;2023-02-01T04:15:18;94698.25;;;22.61;21.37
65359;BME280;52491;45.900;6.346;2023-02-01T04:17:43;94700.94;;;22.61;21.37
65359;BME280;52491;45.900;6.346;2023-02-01T04:20:10;94696.63;;;22.60;21.38
65359;BME280;52491;45.900;6.346;2023-02-01T04:22:35;94698.47;;;22.59;21.40
65359;BME280;52491;45.900;6.346;2023-02-01T04:25:01;94701.38;;;22.58;21.44
65359;BME280;52491;45.900;6.346;2023-02-01T04:27:27;94700.34;;;22.59;21.43
65359;BME280;52491;45.900;6.346;2023-02-01T04:29:52;94700.34;;;22.59;21.33
65359;BME280;52491;45.900;6.346;2023-02-01T04:32:18;94697.91;;;22.57;21.32
65359;BME280;52491;45.900;6.346;2023-02-01T04:34:45;94707.50;;;22.58;21.17
65359;BME280;52491;45.900;6.346;2023-02-01T04:37:11;94704.59;;;22.60;21.32
65359;BME280;52491;45.900;6.346;2023-02-01T04:39:37;94706.25;;;22.61;21.16
65359;BME280;52491;45.900;6.346;2023-02-01T04:42:03;94711.31;;;22.62;21.36
65359;BME280;52491;45.900;6.346;2023-02-01T04:44:28;94712.13;;;22.63;21.31
65359;BME280;52491;45.900;6.346;2023-02-01T04:46:54;94709.69;;;22.61;21.29
65359;BME280;52491;45.900;6.346;2023-02-01T04:49:20;94710.84;;;22.65;21.21
65359;BME280;52491;45.900;6.346;2023-02-01T04:51:46;94712.94;;;22.63;21.18
65359;BME280;52491;45.900;6.346;2023-02-01T04:54:13;94710.03;;;22.65;21.16
65359;BME280;52491;45.900;6.346;2023-02-01T04:56:38;94703.91;;;22.64;21.04
65359;BME280;52491;45.900;6.346;2023-02-01T04:59:05;94710.84;;;22.65;21.20
65359;BME280;52491;45.900;6.346;2023-02-01T05:01:31;94711.66;;;22.66;21.14
65359;BME280;52491;45.900;6.346;2023-02-01T05:03:56;94715.94;;;22.67;21.24
65359;BME280;52491;45.900;6.346;2023-02-01T05:06:23;94713.28;;;22.67;21.15
65359;BME280;52491;45.900;6.346;2023-02-01T05:08:48;94713.03;;;22.68;21.03
65359;BME280;52491;45.900;6.346;2023-02-01T05:11:14;94723.66;;;22.68;21.15
65359;BME280;52491;45.900;6.346;2023-02-01T05:13:59;94714.88;;;22.68;21.15
65359;BME280;52491;45.900;6.346;2023-02-01T05:16:25;94715.69;;;22.68;21.27
65359;BME280;52491;45.900;6.346;2023-02-01T05:18:51;94717.56;;;22.68;21.10
65359;BME280;52491;45.900;6.346;2023-02-01T05:21:17;94716.75;;;22.67;21.20
65359;BME280;52491;45.900;6.346;2023-02-01T05:23:43;94714.88;;;22.68;21.08
65359;BME280;52491;45.900;6.346;2023-02-01T05:26:27;94713.28;;;22.67;21.20
65359;BME280;52491;45.900;6.346;2023-02-01T05:28:53;94707.97;;;22.67;21.27
65359;BME280;52491;45.900;6.346;2023-02-01T05:31:18;94719.41;;;22.67;21.07
65359;BME280;52491;45.900;6.346;2023-02-01T05:33:44;94716.75;;;22.67;21.10
65359;BME280;52491;45.900;6.346;2023-02-01T05:36:10;94722.88;;;22.68;21.00
65359;BME280;52491;45.900;6.346;2023-02-01T05:38:35;94721.00;;;22.68;21.18
65359;BME280;52491;45.900;6.346;2023-02-01T05:41:01;94722.88;;;22.68;21.15
65359;BME280;52491;45.900;6.346;2023-02-01T05:43:27;94724.50;;;22.69;21.03
65359;BME280;52491;45.900;6.346;2023-02-01T05:45:52;94724.50;;;22.69;21.16
65359;BME280;52491;45.900;6.346;2023-02-01T05:48:18;94717.34;;;22.69;21.16
65359;BME280;52491;45.900;6.346;2023-02-01T05:50:44;94723.44;;;22.70;21.03
65359;BME280;52491;45.900;6.346;2023-02-01T05:53:11;94718.72;;;22.72;21.23
65359;BME280;52491;45.900;6.346;2023-02-01T05:55:37;94721.38;;;22.72;21.40
65359;BME280;52491;45.900;6.346;2023-02-01T05:58:03;94724.03;;;22.72;21.59
65359;BME280;52491;45.900;6.346;2023-02-01T06:00:29;94731.75;;;22.73;21.64
65359;BME280;52491;45.900;6.346;2023-02-01T06:02:55;94732.34;;;22.75;21.58
65359;BME280;52491;45.900;6.346;2023-02-01T06:05:20;94734.31;;;22.80;21.58
65359;BME280;52491;45.900;6.346;2023-02-01T06:07:46;94730.63;;;22.81;21.29
65359;BME280;52491;45.900;6.346;2023-02-01T06:10:12;94738.00;;;22.79;21.57
65359;BME280;52491;45.900;6.346;2023-02-01T06:12:37;94733.50;;;22.79;21.51
65359;BME280;52491;45.900;6.346;2023-02-01T06:15:03;94735.13;;;22.81;21.64
65359;BME280;52491;45.900;6.346;2023-02-01T06:17:29;94738.94;;;22.85;21.56
65359;BME280;52491;45.900;6.346;2023-02-01T06:19:55;94744.25;;;22.85;21.54
65359;BME280;52491;45.900;6.346;2023-02-01T06:22:21;94745.06;;;22.85;21.50
65359;BME280;52491;45.900;6.346;2023-02-01T06:24:47;94748.75;;;22.84;21.68
65359;BME280;52491;45.900;6.346;2023-02-01T06:27:14;94759.19;;;22.86;21.48
65359;BME280;52491;45.900;6.346;2023-02-01T06:29:40;94756.28;;;22.87;21.74
65359;BME280;52491;45.900;6.346;2023-02-01T06:32:06;94763.66;;;22.85;21.62
65359;BME280;52491;45.900;6.346;2023-02-01T06:34:32;94756.84;;;22.89;21.79
65359;BME280;52491;45.900;6.346;2023-02-01T06:36:59;94758.00;;;22.93;21.69
65359;BME280;52491;45.900;6.346;2023-02-01T06:39:26;94767.03;;;22.92;21.69
65359;BME280;52491;45.900;6.346;2023-02-01T06:41:52;94765.41;;;22.91;21.64
65359;BME280;52491;45.900;6.346;2023-02-01T06:44:18;94771.75;;;22.90;21.55
65359;BME280;52491;45.900;6.346;2023-02-01T06:46:44;94775.47;;;22.89;21.68
65359;BME280;52491;45.900;6.346;2023-02-01T06:49:10;94781.84;;;22.88;21.82
65359;BME280;52491;45.900;6.346;2023-02-01T06:51:35;94783.44;;;22.89;21.70
65359;BME280;52491;45.900;6.346;2023-02-01T06:54:01;94785.06;;;22.90;21.56
65359;BME280;52491;45.900;6.346;2023-02-01T06:56:27;94792.22;;;22.90;21.62
65359;BME280;52491;45.900;6.346;2023-02-01T06:58:53;94795.69;;;22.90;21.78
65359;BME280;52491;45.900;6.346;2023-02-01T07:01:18;94796.28;;;22.92;21.59
65359;BME280;52491;45.900;6.346;2023-02-01T07:03:49;94795.22;;;22.93;21.54
65359;BME280;52491;45.900;6.346;2023-02-01T07:06:16;94792.00;;;22.91;21.39
65359;BME280;52491;45.900;6.346;2023-02-01T07:08:42;94799.75;;;22.93;21.48
65359;BME280;52491;45.900;6.346;2023-02-01T07:11:13;94801.59;;;22.92;21.53
65359;BME280;52491;45.900;6.346;2023-02-01T07:13:39;94815.94;;;22.91;21.45
65359;BME280;52491;45.900;6.346;2023-02-01T07:16:09;94823.66;;;22.93;21.39
65359;BME280;52491;45.900;6.346;2023-02-01T07:18:35;94830.25;;;22.90;21.49
65359;BME280;52491;45.900;6.346;2023-02-01T07:21:01;94838.03;;;22.92;21.48
65359;BME280;52491;45.900;6.346;2023-02-01T07:23:27;94833.50;;;22.92;21.39
65359;BME280;52491;45.900;6.346;2023-02-01T07:25:54;94842.53;;;22.91;21.37
65359;BME280;52491;45.900;6.346;2023-02-01T07:28:20;94850.25;;;22.93;21.42
65359;BME280;52491;45.900;6.346;2023-02-01T07:30:46;94848.41;;;22.93;21.39
65359;BME280;52491;45.900;6.346;2023-02-01T07:33:18;94851.06;;;22.93;21.31
65359;BME280;52491;45.900;6.346;2023-02-01T07:35:43;94861.50;;;22.95;21.35
65359;BME280;52491;45.900;6.346;2023-02-01T07:38:09;94876.06;;;22.92;21.32
65359;BME280;52491;45.900;6.346;2023-02-01T07:40:35;94876.63;;;22.94;21.32
65359;BME280;52491;45.900;6.346;2023-02-01T07:43:00;94862.53;;;22.94;21.24
65359;BME280;52491;45.900;6.346;2023-02-01T07:45:26;94875.00;;;22.93;21.31
65359;BME280;52491;45.900;6.346;2023-02-01T07:47:51;94874.78;;;22.95;21.24
65359;BME280;52491;45.900;6.346;2023-02-01T07:50:18;94856.38;;;22.93;21.21
65359;BME280;52491;45.900;6.346;2023-02-01T07:52:44;94861.69;;;22.93;21.32
65359;BME280;52491;45.900;6.346;2023-02-01T07:55:10;94871.31;;;22.94;21.21
65359;BME280;52491;45.900;6.346;2023-02-01T07:57:36;94859.28;;;22.92;21.19
65359;BME280;52491;45.900;6.346;2023-02-01T08:00:02;94856.38;;;22.93;21.16
65359;BME280;52491;45.900;6.346;2023-02-01T08:02:47;94859.28;;;22.92;21.22
65359;BME280;52491;45.900;6.346;2023-02-01T08:05:13;94860.09;;;22.92;21.13
65359;BME280;52491;45.900;6.346;2023-02-01T08:07:38;94860.09;;;22.92;21.11
65359;BME280;52491;45.900;6.346;2023-02-01T08:10:04;94869.13;;;22.91;21.17
65359;BME280;52491;45.900;6.346;2023-02-01T08:12:36;94867.47;;;22.90;21.22
65359;BME280;52491;45.900;6.346;2023-02-01T08:15:02;94866.47;;;22.91;21.19
65359;BME280;52491;45.900;6.346;2023-02-01T08:17:29;94854.78;;;22.92;21.16
65359;BME280;52491;45.900;6.346;2023-02-01T08:19:56;94852.91;;;22.93;21.11
65359;BME280;52491;45.900;6.346;2023-02-01T08:22:21;94845.53;;;22.95;21.01
65359;BME280;52491;45.900;6.346;2023-02-01T08:24:50;94847.97;;;22.96;21.10
65359;BME280;52491;45.900;6.346;2023-02-01T08:27:17;94858.03;;;22.94;20.96
65359;BME280;52491;45.900;6.346;2023-02-01T08:29:42;94861.94;;;22.92;21.05
65359;BME280;52491;45.900;6.346;2023-02-01T08:32:08;94856.03;;;22.90;21.16
65359;BME280;52491;45.900;6.346;2023-02-01T08:34:33;94852.13;;;22.92;21.32
65359;BME280;52491;45.900;6.346;2023-02-01T08:36:59;94846.22;;;22.90;21.20
65359;BME280;52491;45.900;6.346;2023-02-01T08:39:28;94844.59;;;22.89;21.14
65359;BME280;52491;45.900;6.346;2023-02-01T08:41:53;94835.56;;;22.90;21.04
65359;BME280;52491;45.900;6.346;2023-02-01T08:44:37;94828.66;;;22.89;21.06
65359;BME280;52491;45.900;6.346;2023-02-01T08:47:04;94828.66;;;22.89;21.05
65359;BME280;52491;45.900;6.346;2023-02-01T08:49:29;94825.19;;;22.89;21.08
65359;BME280;52491;45.900;6.346;2023-02-01T08:51:55;94826.44;;;22.86;21.21
65359;BME280;52491;45.900;6.346;2023-02-01T08:54:21;94827.25;;;22.87;21.12
65359;BME280;52491;45.900;6.346;2023-02-01T08:56:47;94824.81;;;22.85;21.23
65359;BME280;52491;45.900;6.346;2023-02-01T08:59:12;94828.31;;;22.86;21.12
65359;BME280;52491;45.900;6.346;2023-02-01T09:01:38;94825.66;;;22.86;21.11
65359;BME280;52491;45.900;6.346;2023-02-01T09:04:04;94835.22;;;22.87;21.18
65359;BME280;52491;45.900;6.346;2023-02-01T09:06:29;94843.44;;;22.85;21.03
65359;BME280;52491;45.900;6.346;2023-02-01T09:08:55;94839.97;;;22.85;21.12
65359;BME280;52491;45.900;6.346;2023-02-01T09:11:21;94845.06;;;22.86;21.07
65359;BME280;52491;45.900;6.346;2023-02-01T09:13:48;94841.59;;;22.86;21.15
65359;BME280;52491;45.900;6.346;2023-02-01T09:16:14;94830.13;;;22.85;21.20
65359;BME280;52491;45.900;6.346;2023-02-01T09:18:40;94831.53;;;22.88;21.14
65359;BME280;52491;45.900;6.346;2023-02-01T09:21:08;94835.00;;;22.88;21.00
65359;BME280;52491;45.900;6.346;2023-02-01T09:23:34;94837.69;;;22.88;21.09
65359;BME280;52491;45.900;6.346;2023-02-01T09:26:04;94836.16;;;22.92;21.13
65359;BME280;52491;45.900;6.346;2023-02-01T09:28:30;94838.19;;;22.97;21.23
65359;BME280;52491;45.900;6.346;2023-02-01T09:30:57;94846.16;;;22.97;21.06
65359;BME280;52491;45.900;6.346;2023-02-01T09:33:23;94859.44;;;22.97;21.04
65359;BME280;52491;45.900;6.346;2023-02-01T09:35:56;94859.44;;;22.97;20.96
65359;BME280;52491;45.900;6.346;2023-02-01T09:38:23;94868.22;;;22.97;21.15
65359;BME280;52491;45.900;6.346;2023-02-01T09:40:51;94874.94;;;23.00;21.00
65359;BME280;52491;45.900;6.346;2023-02-01T09:43:28;94890.19;;;23.05;21.00
65359;BME280;52491;45.900;6.346;2023-02-01T09:48:43;94886.84;;;23.09;21.04
65359;BME280;52491;45.900;6.346;2023-02-01T09:51:17;94902.34;;;23.12;20.87
65359;BME280;52491;45.900;6.346;2023-02-01T09:53:58;94900.88;;;23.16;20.94
65359;BME280;52491;45.900;6.346;2023-02-01T09:56:29;94900.41;;;23.19;20.69
65359;BME280;52491;45.900;6.346;2023-02-01T09:59:20;94905.81;;;23.24;20.81
65359;BME280;52491;45.900;6.346;2023-02-01T10:01:49;94905.03;;;23.24;20.75
65359;BME280;52491;45.900;6.346;2023-02-01T10:04:15;94898.44;;;23.27;20.87
65359;BME280;52491;45.900;6.346;2023-02-01T10:26:25;94905.16;;;23.41;21.09
65359;BME280;52491;45.900;6.346;2023-02-01T10:28:56;94903.31;;;23.41;21.05
65359;BME280;52491;45.900;6.346;2023-02-01T10:31:26;94895.91;;;23.43;21.25
65359;BME280;52491;45.900;6.346;2023-02-01T10:33:57;94899.94;;;23.46;21.25
65359;BME280;52491;45.900;6.346;2023-02-01T10:36:28;94890.69;;;23.49;21.23
65359;BME280;52491;45.900;6.346;2023-02-01T10:38:57;94892.06;;;23.51;21.08
65359;BME280;52491;45.900;6.346;2023-02-01T10:41:31;94889.41;;;23.51;21.20
65359;BME280;52491;45.900;6.346;2023-02-01T10:43:59;94875.88;;;23.53;21.29
65359;BME280;52491;45.900;6.346;2023-02-01T10:46:27;94873.78;;;23.55;21.31
65359;BME280;52491;45.900;6.346;2023-02-01T10:48:55;94880.50;;;23.57;21.39
65359;BME280;52491;45.900;6.346;2023-02-01T10:51:27;94882.94;;;23.59;21.23
65359;BME280;52491;45.900;6.346;2023-02-01T10:53:58;94877.38;;;23.60;21.37
65359;BME280;52491;45.900;6.346;2023-02-01T10:56:27;94870.19;;;23.61;21.30
65359;BME280;52491;45.900;6.346;2023-02-01T10:59:05;94879.56;;;23.63;21.33
65359;BME280;52491;45.900;6.346;2023-02-01T11:01:34;94873.22;;;23.64;21.25
65359;BME280;52491;45.900;6.346;2023-02-01T11:04:09;94853.31;;;23.67;21.14
65359;BME280;52491;45.900;6.346;2023-02-01T11:06:40;94850.63;;;23.67;21.22
65359;BME280;52491;45.900;6.346;2023-02-01T11:12:01;94845.69;;;23.71;21.36
65359;BME280;52491;45.900;6.346;2023-02-01T11:14:39;94839.53;;;23.70;21.39
65359;BME280;52491;45.900;6.346;2023-02-01T11:19:44;94831.69;;;23.75;21.41
65359;BME280;52491;45.900;6.346;2023-02-01T11:22:12;94831.41;;;23.77;21.28
65359;BME280;52491;45.900;6.346;2023-02-01T11:24:40;94832.00;;;23.79;21.31
65359;BME280;52491;45.900;6.346;2023-02-01T11:27:16;94815.78;;;23.80;21.41
65359;BME280;52491;45.900;6.346;2023-02-01T11:29:46;94807.78;;;23.80;21.24
65359;BME280;52491;45.900;6.346;2023-02-01T11:32:14;94804.31;;;23.80;21.24
65359;BME280;52491;45.900;6.346;2023-02-01T11:34:54;94795.06;;;23.82;21.42
65359;BME280;52491;45.900;6.346;2023-02-01T11:37:30;94796.66;;;23.83;21.38
65359;BME280;52491;45.900;6.346;2023-02-01T11:39:58;94795.84;;;23.83;20.68
65359;BME280;52491;45.900;6.346;2023-02-01T11:42:25;94791.38;;;23.72;20.05
65359;BME280;52491;45.900;6.346;2023-02-01T11:45:18;94781.06;;;23.63;19.72
65359;BME280;52491;45.900;6.346;2023-02-01T11:47:44;94771.50;;;23.51;19.35
65359;BME280;52491;45.900;6.346;2023-02-01T11:50:35;94778.09;;;23.48;19.91
65359;BME280;52491;45.900;6.346;2023-02-01T11:59:21;94757.34;;;23.62;20.98
65359;BME280;52491;45.900;6.346;2023-02-01T12:02:14;94740.44;;;23.68;20.99
65359;BME280;52491;45.900;6.346;2023-02-01T12:21:12;94729.63;;;23.46;21.13
65359;BME280;52491;45.900;6.346;2023-02-01T12:43:09;94721.31;;;23.42;21.05
65359;BME280;52491;45.900;6.346;2023-02-01T12:45:47;94707.31;;;23.47;21.25
65359;BME280;52491;45.900;6.346;2023-02-01T12:48:38;94710.94;;;23.58;21.32
65359;BME280;52491;45.900;6.346;2023-02-01T12:51:18;94711.63;;;23.65;21.59
65359;BME280;52491;45.900;6.346;2023-02-01T12:54:16;94702.09;;;23.69;21.52
65359;BME280;52491;45.900;6.346;2023-02-01T12:56:56;94691.59;;;23.74;21.62
65359;BME280;52491;45.900;6.346;2023-02-01T12:59:36;94688.44;;;23.77;21.62
65359;BME280;52491;45.900;6.346;2023-02-01T13:02:25;94681.34;;;23.83;21.68
65359;BME280;52491;45.900;6.346;2023-02-01T13:07:23;94665.97;;;23.85;21.66
65359;BME280;52491;45.900;6.346;2023-02-01T13:10:00;94670.00;;;23.87;21.78
65359;BME280;52491;45.900;6.346;2023-02-01T13:13:02;94665.47;;;23.88;21.80
65359;BME280;52491;45.900;6.346;2023-02-01T13:15:33;94668.72;;;23.90;21.86
65359;BME280;52491;45.900;6.346;2023-02-01T13:18:04;94670.31;;;23.91;21.84
65359;BME280;52491;45.900;6.346;2023-02-01T13:20:35;94673.34;;;23.95;21.87
65359;BME280;52491;45.900;6.346;2023-02-01T13:23:08;94676.00;;;23.95;21.81
65359;BME280;52491;45.900;6.346;2023-02-01T13:25:46;94668.56;;;23.97;22.10
65359;BME280;52491;45.900;6.346;2023-02-01T13:40:10;94673.16;;;24.01;22.07
65359;BME280;52491;45.900;6.346;2023-02-01T13:42:49;94665.19;;;24.01;21.98
65359;BME280;52491;45.900;6.346;2023-02-01T13:45:21;94670.03;;;24.04;22.11
65359;BME280;52491;45.900;6.346;2023-02-01T13:47:50;94660.75;;;24.07;22.29
65359;BME280;52491;45.900;6.346;2023-02-01T13:52:59;94663.41;;;24.07;22.35
65359;BME280;52491;45.900;6.346;2023-02-01T13:55:36;94666.88;;;24.07;22.31
65359;BME280;52491;45.900;6.346;2023-02-01T13:58:19;94665.81;;;24.08;22.19
65359;BME280;52491;45.900;6.346;2023-02-01T14:00:48;94672.47;;;24.06;22.47
65359;BME280;52491;45.900;6.346;2023-02-01T14:03:21;94673.56;;;24.10;22.34
65359;BME280;52491;45.900;6.346;2023-02-01T14:08:36;94673.56;;;24.10;22.34
65359;BME280;52491;45.900;6.346;2023-02-01T14:11:02;94667.69;;;24.08;22.44
65359;BME280;52491;45.900;6.346;2023-02-01T14:13:41;94665.09;;;24.13;22.34
65359;BME280;52491;45.900;6.346;2023-02-01T14:16:12;94665.69;;;24.15;22.50
65359;BME280;52491;45.900;6.346;2023-02-01T14:21:13;94664.53;;;24.11;22.32
65359;BME280;52491;45.900;6.346;2023-02-01T14:23:43;94655.03;;;24.15;22.48
65359;BME280;52491;45.900;6.346;2023-02-01T14:28:50;94659.84;;;24.18;22.37
65359;BME280;52491;45.900;6.346;2023-02-01T14:31:32;94661.47;;;24.19;22.46
65359;BME280;52491;45.900;6.346;2023-02-01T14:34:01;94663.59;;;24.17;22.47
65359;BME280;52491;45.900;6.346;2023-02-01T14:36:43;94664.13;;;24.19;22.41
65359;BME280;52491;45.900;6.346;2023-02-01T14:39:23;94666.78;;;24.19;22.53
65359;BME280;52491;45.900;6.346;2023-02-01T14:41:54;94665.19;;;24.18;22.61
65359;BME280;52491;45.900;6.346;2023-02-01T14:44:29;94658.78;;;24.19;22.36
65359;BME280;52491;45.900;6.346;2023-02-01T14:47:05;94660.97;;;24.22;22.46
65359;BME280;52491;45.900;6.346;2023-02-01T14:49:42;94660.97;;;24.22;22.44
65359;BME280;52491;45.900;6.346;2023-02-01T14:52:15;94659.38;;;24.21;22.54
65359;BME280;52491;45.900;6.346;2023-02-01T14:54:46;94653.56;;;24.24;22.27
65359;BME280;52491;45.900;6.346;2023-02-01T14:57:17;94654.03;;;24.21;22.32
65359;BME280;52491;45.900;6.346;2023-02-01T14:59:45;94650.31;;;24.22;22.52
65359;BME280;52491;45.900;6.346;2023-02-01T15:02:23;94645.81;;;24.23;22.41
65359;BME280;52491;45.900;6.346;2023-02-01T15:04:55;94649.50;;;24.22;22.36
65359;BME280;52491;45.900;6.346;2023-02-01T15:07:21;94644.44;;;24.20;22.53
65359;BME280;52491;45.900;6.346;2023-02-01T15:09:50;94633.22;;;24.18;22.53
65359;BME280;52491;45.900;6.346;2023-02-01T15:12:22;94627.63;;;24.20;22.63
65359;BME280;52491;45.900;6.346;2023-02-01T15:17:34;94624.66;;;24.16;22.44
65359;BME280;52491;45.900;6.346;2023-02-01T15:20:11;94631.34;;;24.19;22.36
65359;BME280;52491;45.900;6.346;2023-02-01T15:22:37;94638.53;;;24.18;22.44
65359;BME280;52491;45.900;6.346;2023-02-01T15:25:03;94636.69;;;24.19;22.28
65359;BME280;52491;45.900;6.346;2023-02-01T15:27:30;94633.22;;;24.18;22.44
65359;BME280;52491;45.900;6.346;2023-02-01T15:30:17;94641.53;;;24.22;22.44